createdAt,value
2023-11-17T00:00:23.316Z,10.95
2023-11-17T00:04:35.746Z,16.15
2023-11-17T00:08:48.161Z,16.25
2023-11-17T00:13:00.454Z,18.00
2023-11-17T00:17:12.872Z,10.60
2023-11-17T00:21:25.247Z,15.20
2023-11-17T00:25:37.612Z,13.80
2023-11-17T00:29:50.170Z,9.98
2023-11-17T00:34:08.117Z,10.15
2023-11-17T00:38:20.484Z,9.60
2023-11-17T00:42:33.080Z,11.73
2023-11-17T00:46:47.083Z,12.75
2023-11-17T00:51:00.756Z,16.75
2023-11-17T00:55:15.248Z,7.63
2023-11-17T00:59:27.778Z,11.20
2023-11-17T01:03:40.318Z,13.85
2023-11-17T01:07:53.818Z,8.57
2023-11-17T01:12:07.546Z,13.18
2023-11-17T01:16:22.448Z,4.88
2023-11-17T01:20:42.475Z,6.88
2023-11-17T01:24:55.137Z,7.18
2023-11-17T01:29:07.500Z,3.15
2023-11-17T01:33:20.791Z,3.85
2023-11-17T01:37:33.520Z,4.68
2023-11-17T01:41:45.968Z,2.33
2023-11-17T01:45:59.077Z,3.55
2023-11-17T01:50:16.607Z,2.78
2023-11-17T01:54:33.830Z,4.13
2023-11-17T01:58:46.915Z,2.92
2023-11-17T02:03:01.896Z,3.55
2023-11-17T02:07:24.804Z,2.17
2023-11-17T02:12:00.999Z,3.70
2023-11-17T02:16:19.084Z,1.30
2023-11-17T02:20:36.213Z,1.90
2023-11-17T02:24:58.582Z,4.03
2023-11-17T02:29:30.361Z,2.30
2023-11-17T02:33:47.345Z,2.90
2023-11-17T02:38:05.537Z,1.80
2023-11-17T02:42:25.723Z,2.80
2023-11-17T02:46:45.928Z,2.85
2023-11-17T02:51:17.002Z,2.38
2023-11-17T02:55:37.238Z,1.83
2023-11-17T02:59:50.380Z,2.88
2023-11-17T03:04:02.707Z,2.90
2023-11-17T03:08:15.152Z,3.03
2023-11-17T03:12:28.819Z,3.15
2023-11-17T03:16:41.399Z,3.22
2023-11-17T03:21:03.573Z,1.25
2023-11-17T03:25:17.349Z,2.35
2023-11-17T03:29:31.119Z,1.65
2023-11-17T03:33:46.592Z,1.30
2023-11-17T03:37:59.547Z,2.53
2023-11-17T03:42:15.831Z,2.75
2023-11-17T03:46:28.236Z,2.60
2023-11-17T03:50:42.963Z,2.50
2023-11-17T03:54:57.925Z,1.17
2023-11-17T03:59:14.727Z,3.22
2023-11-17T04:03:27.101Z,2.28
2023-11-17T04:07:39.490Z,2.42
2023-11-17T04:11:53.847Z,1.77
2023-11-17T04:16:07.854Z,1.63
2023-11-17T04:20:20.739Z,2.53
2023-11-17T04:24:33.586Z,1.85
2023-11-17T04:28:45.869Z,3.80
2023-11-17T04:32:59.991Z,4.50
2023-11-17T04:37:13.499Z,3.05
2023-11-17T04:41:25.903Z,4.82
2023-11-17T04:45:44.179Z,4.03
2023-11-17T04:49:56.606Z,2.10
2023-11-17T04:54:08.852Z,2.10
2023-11-17T04:58:21.251Z,2.40
2023-11-17T05:02:34.869Z,3.50
2023-11-17T05:06:47.955Z,2.10
2023-11-17T05:11:02.138Z,2.78
2023-11-17T05:15:15.000Z,3.75
2023-11-17T05:19:28.435Z,3.03
2023-11-17T05:23:40.671Z,4.68
2023-11-17T05:27:53.272Z,1.92
2023-11-17T05:32:06.125Z,6.32
2023-11-17T05:36:18.693Z,4.93
2023-11-17T05:40:35.224Z,2.70
2023-11-17T05:44:47.678Z,4.50
2023-11-17T05:48:59.988Z,4.72
2023-11-17T05:53:12.426Z,5.28
2023-11-17T05:57:24.735Z,4.18
2023-11-17T06:01:37.005Z,5.35
2023-11-17T06:05:49.405Z,4.50
2023-11-17T06:10:01.837Z,6.68
2023-11-17T06:14:14.262Z,5.20
2023-11-17T06:18:27.121Z,4.95
2023-11-17T06:22:39.495Z,4.47
2023-11-17T06:26:51.812Z,7.90
2023-11-17T06:31:04.406Z,4.38
2023-11-17T06:35:17.740Z,5.40
2023-11-17T06:39:30.860Z,7.22
2023-11-17T06:43:43.438Z,3.58
2023-11-17T06:47:55.858Z,9.05
2023-11-17T06:52:09.766Z,6.50
2023-11-17T06:56:22.346Z,8.45
2023-11-17T07:00:34.626Z,3.92
2023-11-17T07:04:48.635Z,4.47
2023-11-17T07:09:03.254Z,8.73
2023-11-17T07:13:16.836Z,4.75
2023-11-17T07:17:29.262Z,7.00
2023-11-17T07:21:42.168Z,8.70
2023-11-17T07:25:56.628Z,5.40
2023-11-17T07:30:14.150Z,5.75
2023-11-17T07:34:26.620Z,7.35
2023-11-17T07:38:39.485Z,9.95
2023-11-17T07:42:51.806Z,5.93
2023-11-17T07:47:05.896Z,8.63
2023-11-17T07:51:18.607Z,8.35
2023-11-17T07:55:33.413Z,7.57
2023-11-17T07:59:46.348Z,8.65
2023-11-17T08:04:00.329Z,14.85
2023-11-17T08:08:15.317Z,9.30
2023-11-17T08:12:28.256Z,10.00
2023-11-17T08:16:40.671Z,13.18
2023-11-17T08:20:53.661Z,8.88
2023-11-17T08:25:08.128Z,12.13
2023-11-17T08:29:23.019Z,10.27
2023-11-17T08:33:36.453Z,7.07
2023-11-17T08:37:48.930Z,12.50
2023-11-17T08:42:02.400Z,13.50
2023-11-17T08:46:15.268Z,12.82
2023-11-17T08:50:27.637Z,7.35
2023-11-17T08:54:39.962Z,14.43
2023-11-17T08:58:52.363Z,10.02
2023-11-17T09:03:06.521Z,8.93
2023-11-17T09:07:19.044Z,12.20
2023-11-17T09:11:34.487Z,13.77
2023-11-17T09:15:47.157Z,7.38
2023-11-17T09:20:01.611Z,9.02
2023-11-17T09:24:14.099Z,7.50
2023-11-17T09:28:26.457Z,7.80
2023-11-17T09:32:38.804Z,8.35
2023-11-17T09:36:53.298Z,7.65
2023-11-17T09:41:06.248Z,11.13
2023-11-17T09:45:23.591Z,13.10
2023-11-17T09:49:40.039Z,7.57
2023-11-17T09:53:55.793Z,16.08
2023-11-17T09:58:09.142Z,7.30
2023-11-17T10:02:22.669Z,12.13
2023-11-17T10:06:35.807Z,11.32
2023-11-17T10:10:49.532Z,11.75
2023-11-17T10:15:07.731Z,11.57
2023-11-17T10:19:20.963Z,9.52
2023-11-17T10:23:34.443Z,11.43
2023-11-17T10:27:51.233Z,10.20
2023-11-17T10:32:23.039Z,8.02
2023-11-17T10:37:00.706Z,12.18
2023-11-17T10:41:23.140Z,18.45
2023-11-17T10:45:38.087Z,11.25
2023-11-17T10:50:09.178Z,10.68
2023-11-17T10:54:21.653Z,12.02
2023-11-17T10:58:34.341Z,11.65
2023-11-17T11:02:48.959Z,13.65
2023-11-17T11:07:03.177Z,13.15
2023-11-17T11:11:22.324Z,11.38
2023-11-17T11:15:35.621Z,12.20
2023-11-17T11:19:58.489Z,17.20
2023-11-17T11:24:33.415Z,10.48
2023-11-17T11:28:49.916Z,13.60
2023-11-17T11:33:02.624Z,14.05
2023-11-17T11:37:15.002Z,18.30
2023-11-17T11:41:28.478Z,12.57
2023-11-17T11:45:42.706Z,18.85
2023-11-17T11:49:58.688Z,17.08
2023-11-17T11:54:11.778Z,16.38
2023-11-17T11:58:24.424Z,23.38
2023-11-17T12:02:36.729Z,16.75
2023-11-17T12:06:51.968Z,16.98
2023-11-17T12:11:14.828Z,16.73
2023-11-17T12:15:30.240Z,18.05
2023-11-17T12:19:42.685Z,18.98
2023-11-17T12:24:07.957Z,17.88
2023-11-17T12:28:21.249Z,17.25
2023-11-17T12:32:34.945Z,15.82
2023-11-17T12:36:47.834Z,22.77
2023-11-17T12:41:03.926Z,22.08
2023-11-17T12:45:17.631Z,17.42
2023-11-17T12:49:30.104Z,22.05
2023-11-17T12:53:51.296Z,17.27
2023-11-17T12:58:04.600Z,25.20
2023-11-17T13:02:18.157Z,13.80
2023-11-17T13:06:32.543Z,12.30
2023-11-17T13:10:47.747Z,21.58
2023-11-17T13:15:00.211Z,15.85
2023-11-17T13:19:15.772Z,14.55
2023-11-17T13:23:29.104Z,21.45
2023-11-17T13:27:44.580Z,16.63
2023-11-17T13:32:02.346Z,17.10
2023-11-17T13:36:15.180Z,19.23
2023-11-17T13:40:35.658Z,17.30
2023-11-17T13:44:48.531Z,14.57
2023-11-17T13:49:14.118Z,14.73
2023-11-17T13:53:29.302Z,16.80
2023-11-17T13:57:42.397Z,14.25
2023-11-17T14:01:59.256Z,10.40
2023-11-17T14:06:12.066Z,24.80
2023-11-17T14:10:24.665Z,14.98
2023-11-17T14:14:38.459Z,15.60
2023-11-17T14:18:52.149Z,12.52
2023-11-17T14:23:09.364Z,16.10
2023-11-17T14:27:21.795Z,15.80
2023-11-17T14:31:36.533Z,13.57
2023-11-17T14:35:49.147Z,16.98
2023-11-17T14:40:01.732Z,18.92
2023-11-17T14:44:14.242Z,14.88
2023-11-17T14:48:26.938Z,15.70
2023-11-17T14:52:39.445Z,17.27
2023-11-17T14:56:52.107Z,10.73
2023-11-17T15:01:06.902Z,13.93
2023-11-17T15:05:22.622Z,14.35
2023-11-17T15:09:35.318Z,14.45
2023-11-17T15:13:48.245Z,13.65
2023-11-17T15:18:09.952Z,13.32
2023-11-17T15:22:22.389Z,13.27
2023-11-17T15:26:35.897Z,11.52
2023-11-17T15:30:55.729Z,17.23
2023-11-17T15:35:12.884Z,10.13
2023-11-17T15:39:28.877Z,13.63
2023-11-17T15:43:44.793Z,12.00
2023-11-17T15:47:58.340Z,14.77
2023-11-17T15:52:12.548Z,13.52
2023-11-17T15:56:25.694Z,27.13
2023-11-17T16:00:39.852Z,18.30
2023-11-17T16:04:52.316Z,17.40
2023-11-17T16:09:11.916Z,22.95
2023-11-17T16:13:25.048Z,24.40
2023-11-17T16:17:37.967Z,21.23
2023-11-17T16:21:50.398Z,21.45
2023-11-17T16:26:02.943Z,23.67
2023-11-17T16:30:18.813Z,20.35
2023-11-17T16:34:31.198Z,26.52
2023-11-17T16:38:44.538Z,24.40
2023-11-17T16:42:59.878Z,17.98
2023-11-17T16:47:13.277Z,12.70
2023-11-17T16:51:25.800Z,14.30
2023-11-17T16:55:41.650Z,15.93
2023-11-17T16:59:54.155Z,17.73
2023-11-17T17:04:07.515Z,20.40
2023-11-17T17:08:27.528Z,15.40
2023-11-17T17:12:40.955Z,18.13
2023-11-17T17:16:54.502Z,17.65
2023-11-17T17:21:08.199Z,15.70
2023-11-17T17:25:21.298Z,14.77
2023-11-17T17:29:33.673Z,15.32
2023-11-17T17:33:46.132Z,20.00
2023-11-17T17:38:00.423Z,20.13
2023-11-17T17:42:17.371Z,20.88
2023-11-17T17:46:29.833Z,18.95
2023-11-17T17:50:42.661Z,19.27
2023-11-17T17:54:55.163Z,19.73
2023-11-17T17:59:07.601Z,27.48
2023-11-17T18:03:21.257Z,20.67
2023-11-17T18:07:34.412Z,24.52
2023-11-17T18:11:50.188Z,22.50
2023-11-17T18:16:03.135Z,26.08
2023-11-17T18:20:20.182Z,23.20
2023-11-17T18:24:33.430Z,23.65
2023-11-17T18:28:49.057Z,31.92
2023-11-17T18:33:01.659Z,27.20
2023-11-17T18:37:14.354Z,26.73
2023-11-17T18:41:27.172Z,28.45
2023-11-17T18:45:39.648Z,29.08
2023-11-17T18:49:52.567Z,29.75
2023-11-17T18:54:07.567Z,22.23
2023-11-17T18:58:21.266Z,29.77
2023-11-17T19:02:33.770Z,34.22
2023-11-17T19:06:49.375Z,26.42
2023-11-17T19:11:02.001Z,23.17
2023-11-17T19:15:15.897Z,15.60
2023-11-17T19:19:28.362Z,15.40
2023-11-17T19:23:40.895Z,14.02
2023-11-17T19:27:53.326Z,16.52
2023-11-17T19:32:08.998Z,14.77
2023-11-17T19:36:22.828Z,15.93
2023-11-17T19:40:36.956Z,15.30
2023-11-17T19:44:51.455Z,16.73
2023-11-17T19:49:07.565Z,13.82
2023-11-17T19:53:20.275Z,14.75
2023-11-17T19:57:34.091Z,18.80
2023-11-17T20:01:46.633Z,17.25
2023-11-17T20:05:59.415Z,15.32
2023-11-17T20:10:15.614Z,9.77
2023-11-17T20:14:27.973Z,22.17
2023-11-17T20:18:40.538Z,18.05
2023-11-17T20:22:55.465Z,13.02
2023-11-17T20:27:08.807Z,11.60
2023-11-17T20:31:24.129Z,15.80
2023-11-17T20:35:39.372Z,12.65
2023-11-17T20:39:52.430Z,14.18
2023-11-17T20:44:07.788Z,12.82
2023-11-17T20:48:20.843Z,18.50
2023-11-17T20:52:33.364Z,7.88
2023-11-17T20:56:47.056Z,9.52
2023-11-17T21:00:59.544Z,9.52
2023-11-17T21:05:13.297Z,5.80
2023-11-17T21:09:30.692Z,13.30
2023-11-17T21:13:45.061Z,11.32
2023-11-17T21:17:57.627Z,6.18
2023-11-17T21:22:10.720Z,8.32
2023-11-17T21:26:26.306Z,9.27
2023-11-17T21:30:39.603Z,10.10
2023-11-17T21:34:59.525Z,8.70
2023-11-17T21:43:25.814Z,7.38
2023-11-17T21:47:38.225Z,8.57
2023-11-17T21:51:50.552Z,9.00
2023-11-17T21:56:02.893Z,6.75
2023-11-17T22:00:18.718Z,7.65
2023-11-17T22:04:31.418Z,2.10
2023-11-17T22:08:43.854Z,1.30
2023-11-17T22:12:57.400Z,4.80
2023-11-17T22:17:09.916Z,4.47
2023-11-17T22:21:22.652Z,4.63
2023-11-17T22:25:35.034Z,7.00
2023-11-17T22:29:47.687Z,2.58
2023-11-17T22:34:00.139Z,7.18
2023-11-17T22:38:14.109Z,8.27
2023-11-17T22:42:27.560Z,1.95
2023-11-17T22:46:40.050Z,2.20
2023-11-17T22:50:52.543Z,3.75
2023-11-17T22:55:05.379Z,1.25
2023-11-17T22:59:19.466Z,7.50
2023-11-17T23:03:32.663Z,3.58
2023-11-17T23:07:45.439Z,5.43
2023-11-17T23:11:59.028Z,4.03
2023-11-17T23:16:11.516Z,5.72
2023-11-17T23:20:24.330Z,4.05
2023-11-17T23:24:37.987Z,6.05
2023-11-17T23:28:51.680Z,7.93
2023-11-17T23:33:09.399Z,8.20
2023-11-17T23:37:22.262Z,5.57
2023-11-17T23:41:34.951Z,7.38
2023-11-17T23:45:47.471Z,5.97
2023-11-17T23:49:59.992Z,5.28
2023-11-17T23:54:15.043Z,4.53
2023-11-17T23:58:27.393Z,6.28
